Time;durP1;ratioP1;P1;durP2;ratioP2;P2;SDS_P1;SDS_P2;PMS_P1;PMS_P2;Temp;Humidity;BMP_temperature;BMP_pressure;BME280_temperature;BME280_humidity;BME280_pressure;Samples;Min_cycle;Max_cycle;Signal;HPM_P1;HPM_P2
2021/04/20 00:01:54;;;;;;;10.32;5.20;;;;;;;;;;4993838;28;20038;-76
2021/04/20 00:04:20;;;;;;;7.20;4.65;;;;;;;;;;4994080;28;20456;-73
2021/04/20 00:06:46;;;;;;;8.23;4.55;;;;;;;;;;4994048;28;20022;-72
2021/04/20 00:09:13;;;;;;;9.93;4.82;;;;;;;;;;4994370;28;20502;-75
2021/04/20 00:11:39;;;;;;;9.70;4.90;;;;;;;;;;4994477;28;20034;-74
2021/04/20 00:14:10;;;;;;;7.75;4.43;;;;;;;;;;4994368;28;20015;-75
2021/04/20 00:16:36;;;;;;;7.18;4.40;;;;;;;;;;4977164;28;20116;-74
2021/04/20 00:19:04;;;;;;;8.50;4.78;;;;;;;;;;4994617;28;20030;-72
2021/04/20 00:21:30;;;;;;;8.45;4.10;;;;;;;;;;4994217;28;20014;-71
2021/04/20 00:23:56;;;;;;;8.70;4.97;;;;;;;;;;4994050;28;20058;-71
2021/04/20 00:26:22;;;;;;;7.15;4.60;;;;;;;;;;4994081;28;20499;-74
2021/04/20 00:28:48;;;;;;;7.95;4.90;;;;;;;;;;4993835;28;20550;-71
2021/04/20 00:31:14;;;;;;;7.22;4.45;;;;;;;;;;4994009;28;20026;-72
2021/04/20 00:33:41;;;;;;;7.32;4.40;;;;;;;;;;4976059;28;20514;-72
2021/04/20 00:36:08;;;;;;;10.07;4.10;;;;;;;;;;4993372;28;20092;-71
2021/04/20 00:38:34;;;;;;;9.00;4.35;;;;;;;;;;4993363;28;20029;-71
2021/04/20 00:41:07;;;;;;;9.77;4.90;;;;;;;;;;4993328;28;20058;-71
2021/04/20 00:43:37;;;;;;;8.05;4.13;;;;;;;;;;4993222;28;20069;-72
2021/04/20 00:46:06;;;;;;;7.40;4.60;;;;;;;;;;4976151;28;20529;-75
2021/04/20 00:48:32;;;;;;;8.25;4.55;;;;;;;;;;4994144;28;20023;-72
2021/04/20 00:50:58;;;;;;;7.20;4.80;;;;;;;;;;4993854;28;20089;-72
2021/04/20 00:53:24;;;;;;;7.88;4.00;;;;;;;;;;4993319;28;20034;-75
2021/04/20 00:55:50;;;;;;;6.68;4.00;;;;;;;;;;4993074;28;20069;-73
2021/04/20 00:58:16;;;;;;;5.88;4.20;;;;;;;;;;4992621;28;20025;-74
2021/04/20 01:00:42;;;;;;;8.30;4.45;;;;;;;;;;4992908;28;20022;-72
2021/04/20 01:03:09;;;;;;;7.75;4.95;;;;;;;;;;4993436;28;20026;-71
2021/04/20 01:05:35;;;;;;;7.93;4.40;;;;;;;;;;4993385;28;20494;-71
2021/04/20 01:08:09;;;;;;;8.07;4.38;;;;;;;;;;4975743;28;20554;-72
2021/04/20 01:10:36;;;;;;;6.30;4.25;;;;;;;;;;4993436;28;20027;-73
2021/04/20 01:13:03;;;;;;;5.97;4.05;;;;;;;;;;4974754;28;20097;-71
2021/04/20 01:15:29;;;;;;;7.85;4.72;;;;;;;;;;4975756;28;20018;-72
2021/04/20 01:17:55;;;;;;;8.38;4.68;;;;;;;;;;4975740;28;20033;-72
2021/04/20 01:20:22;;;;;;;7.28;4.28;;;;;;;;;;4993245;28;20073;-72
2021/04/20 01:22:49;;;;;;;8.65;4.35;;;;;;;;;;4992825;28;21998;-72
2021/04/20 01:25:16;;;;;;;8.60;4.35;;;;;;;;;;4993140;28;20022;-72
2021/04/20 01:27:42;;;;;;;6.63;4.43;;;;;;;;;;4975526;28;20391;-72
2021/04/20 01:30:10;;;;;;;6.65;4.20;;;;;;;;;;4975957;28;20088;-71
2021/04/20 01:32:39;;;;;;;6.65;4.30;;;;;;;;;;4993030;28;20018;-71
2021/04/20 01:35:07;;;;;;;6.72;4.35;;;;;;;;;;4993085;28;20101;-72
2021/04/20 01:37:33;;;;;;;7.25;4.05;;;;;;;;;;4990100;28;20027;-72
2021/04/20 01:39:59;;;;;;;6.68;4.47;;;;;;;;;;4992984;28;20037;-72
2021/04/20 01:42:26;;;;;;;8.93;4.38;;;;;;;;;;4992902;28;20027;-72
2021/04/20 01:44:52;;;;;;;6.30;4.20;;;;;;;;;;4975344;28;20089;-71
2021/04/20 01:47:18;;;;;;;6.57;4.00;;;;;;;;;;4992811;28;20022;-73
2021/04/20 01:49:44;;;;;;;6.90;4.60;;;;;;;;;;4992618;28;20053;-72
2021/04/20 01:52:10;;;;;;;6.72;3.97;;;;;;;;;;4992695;28;20032;-72
2021/04/20 01:54:39;;;;;;;7.95;4.18;;;;;;;;;;4992590;28;20023;-73
2021/04/20 01:57:06;;;;;;;7.72;4.78;;;;;;;;;;4992639;28;20029;-75
2021/04/20 01:59:32;;;;;;;5.80;4.13;;;;;;;;;;4987879;28;20030;-73
2021/04/20 02:01:58;;;;;;;7.43;4.50;;;;;;;;;;4991094;28;20113;-72
2021/04/20 02:04:25;;;;;;;7.97;4.35;;;;;;;;;;4992457;28;20097;-71
2021/04/20 02:06:52;;;;;;;6.65;4.30;;;;;;;;;;4992857;28;20022;-73
2021/04/20 02:09:18;;;;;;;6.10;4.13;;;;;;;;;;4992206;28;20038;-74
2021/04/20 02:11:44;;;;;;;7.47;4.60;;;;;;;;;;4992388;28;20046;-73
2021/04/20 02:14:10;;;;;;;7.78;4.85;;;;;;;;;;4992338;28;20030;-72
2021/04/20 02:16:36;;;;;;;9.40;4.68;;;;;;;;;;4975124;28;20026;-71
2021/04/20 02:19:05;;;;;;;6.47;4.13;;;;;;;;;;4992170;28;20026;-72
2021/04/20 02:21:31;;;;;;;7.43;4.78;;;;;;;;;;4991995;28;20022;-73
2021/04/20 02:23:58;;;;;;;6.55;4.38;;;;;;;;;;4991733;28;20059;-72
2021/04/20 02:26:26;;;;;;;6.68;4.40;;;;;;;;;;4992221;28;20022;-72
2021/04/20 02:28:53;;;;;;;7.25;4.43;;;;;;;;;;4992028;28;20435;-72
2021/04/20 02:31:19;;;;;;;7.15;4.20;;;;;;;;;;4991929;28;20105;-72
2021/04/20 02:33:45;;;;;;;5.57;3.80;;;;;;;;;;4992080;28;20070;-71
2021/04/20 02:36:11;;;;;;;6.35;4.28;;;;;;;;;;4992222;28;20050;-72
2021/04/20 02:38:37;;;;;;;6.53;4.13;;;;;;;;;;4974450;28;20487;-74
2021/04/20 02:41:04;;;;;;;6.72;4.53;;;;;;;;;;4992052;28;20479;-72
2021/04/20 02:43:30;;;;;;;6.25;4.22;;;;;;;;;;4992039;28;20061;-73
2021/04/20 02:46:00;;;;;;;6.00;3.97;;;;;;;;;;4974381;28;20369;-71
2021/04/20 02:48:28;;;;;;;6.60;3.92;;;;;;;;;;4974252;28;20361;-72
2021/04/20 02:50:55;;;;;;;5.95;3.90;;;;;;;;;;4992081;28;20166;-72
2021/04/20 02:53:21;;;;;;;5.60;4.10;;;;;;;;;;4992028;28;20659;-72
2021/04/20 02:55:47;;;;;;;7.38;4.20;;;;;;;;;;4974438;28;20025;-73
2021/04/20 02:58:15;;;;;;;8.80;4.38;;;;;;;;;;4974425;28;20022;-72
2021/04/20 03:00:43;;;;;;;6.35;4.03;;;;;;;;;;4991915;28;20701;-72
2021/04/20 03:03:10;;;;;;;7.82;3.83;;;;;;;;;;4974643;28;20435;-74
2021/04/20 03:05:37;;;;;;;6.53;4.40;;;;;;;;;;4974374;28;20028;-71
2021/04/20 03:08:06;;;;;;;5.93;4.10;;;;;;;;;;4991658;28;20603;-72
2021/04/20 03:10:32;;;;;;;7.53;3.88;;;;;;;;;;4991874;28;20026;-75
2021/04/20 03:12:59;;;;;;;8.43;4.28;;;;;;;;;;4974439;28;20022;-74
2021/04/20 03:15:25;;;;;;;7.10;4.28;;;;;;;;;;4974250;28;20027;-72
2021/04/20 03:17:51;;;;;;;6.50;4.10;;;;;;;;;;4991754;28;20105;-72
2021/04/20 03:20:18;;;;;;;7.45;4.28;;;;;;;;;;4991747;28;20030;-72
2021/04/20 03:22:45;;;;;;;6.88;4.18;;;;;;;;;;4991265;28;20499;-73
2021/04/20 03:25:11;;;;;;;6.07;4.00;;;;;;;;;;4974056;28;20553;-74
2021/04/20 03:27:38;;;;;;;5.43;3.80;;;;;;;;;;4991373;28;20018;-72
2021/04/20 03:30:06;;;;;;;6.03;4.07;;;;;;;;;;4991684;28;20026;-72
2021/04/20 03:32:32;;;;;;;6.47;4.32;;;;;;;;;;4991792;28;20057;-74
2021/04/20 03:34:58;;;;;;;7.88;4.10;;;;;;;;;;4991716;28;20467;-75
2021/04/20 03:37:28;;;;;;;6.75;4.00;;;;;;;;;;4992305;28;20026;-73
2021/04/20 03:39:56;;;;;;;5.50;3.78;;;;;;;;;;4961776;28;20026;-72
2021/04/20 03:42:23;;;;;;;5.25;3.60;;;;;;;;;;4995138;28;20475;-72
2021/04/20 03:44:51;;;;;;;6.35;3.53;;;;;;;;;;4995052;28;20555;-72
2021/04/20 03:47:21;;;;;;;5.50;3.50;;;;;;;;;;4995059;28;20061;-73
2021/04/20 03:49:48;;;;;;;5.57;4.00;;;;;;;;;;4995223;28;20030;-73
2021/04/20 03:52:19;;;;;;;7.85;4.03;;;;;;;;;;4994933;28;20049;-72
2021/04/20 03:54:45;;;;;;;5.95;3.85;;;;;;;;;;4994660;28;20399;-71
2021/04/20 03:57:12;;;;;;;6.70;3.97;;;;;;;;;;4977058;28;20030;-74
2021/04/20 03:59:39;;;;;;;6.15;3.70;;;;;;;;;;4976948;28;20109;-75
2021/04/20 04:02:05;;;;;;;7.53;3.90;;;;;;;;;;4975237;28;20034;-73
2021/04/20 04:04:32;;;;;;;7.75;3.78;;;;;;;;;;4994548;28;20134;-72
2021/04/20 04:06:59;;;;;;;6.25;3.47;;;;;;;;;;4977008;28;20029;-71
2021/04/20 04:09:25;;;;;;;8.95;3.42;;;;;;;;;;4977303;28;20034;-71
2021/04/20 04:11:55;;;;;;;6.03;3.80;;;;;;;;;;4976947;28;20022;-71
2021/04/20 04:14:23;;;;;;;6.30;3.90;;;;;;;;;;4994509;28;20030;-71
2021/04/20 04:16:49;;;;;;;5.40;3.45;;;;;;;;;;4994571;28;20023;-73
2021/04/20 04:19:17;;;;;;;5.40;3.70;;;;;;;;;;4976938;28;20120;-73
2021/04/20 04:21:46;;;;;;;6.20;3.40;;;;;;;;;;4976520;28;20117;-72
2021/04/20 04:24:13;;;;;;;5.95;3.72;;;;;;;;;;4993985;28;20034;-72
2021/04/20 04:26:43;;;;;;;6.32;3.75;;;;;;;;;;4994312;28;20106;-76
2021/04/20 04:29:10;;;;;;;5.85;3.70;;;;;;;;;;4976731;28;20376;-71
2021/04/20 04:31:39;;;;;;;5.85;3.60;;;;;;;;;;4994033;28;20022;-73
2021/04/20 04:34:05;;;;;;;6.55;4.00;;;;;;;;;;4994092;28;20026;-73
2021/04/20 04:36:32;;;;;;;5.90;3.85;;;;;;;;;;4993690;28;20495;-71
2021/04/20 04:38:58;;;;;;;6.13;3.50;;;;;;;;;;4993531;28;20033;-74
2021/04/20 04:41:25;;;;;;;5.43;3.55;;;;;;;;;;4976120;28;20023;-72
2021/04/20 04:43:51;;;;;;;5.80;3.63;;;;;;;;;;4993321;28;20026;-72
2021/04/20 04:46:17;;;;;;;5.55;3.63;;;;;;;;;;4993193;28;20526;-73
2021/04/20 04:48:44;;;;;;;5.78;3.72;;;;;;;;;;4991936;28;20529;-72
2021/04/20 04:51:11;;;;;;;6.18;3.88;;;;;;;;;;4992985;28;20384;-72
2021/04/20 04:53:37;;;;;;;6.25;3.45;;;;;;;;;;4992776;28;20089;-72
2021/04/20 04:56:05;;;;;;;4.97;3.30;;;;;;;;;;4975448;28;20026;-72
2021/04/20 04:58:31;;;;;;;6.07;3.55;;;;;;;;;;4992806;28;20030;-75
2021/04/20 05:00:58;;;;;;;5.90;3.72;;;;;;;;;;4992710;28;20090;-75
2021/04/20 05:03:25;;;;;;;7.30;3.78;;;;;;;;;;4993305;28;20081;-75
2021/04/20 05:05:58;;;;;;;15.65;3.80;;;;;;;;;;4993471;28;20498;-75
2021/04/20 05:08:24;;;;;;;7.50;3.40;;;;;;;;;;4975802;28;20633;-72
2021/04/20 05:10:50;;;;;;;5.40;3.35;;;;;;;;;;4993324;28;20479;-72
2021/04/20 05:13:17;;;;;;;5.65;3.75;;;;;;;;;;4993343;28;20531;-74
2021/04/20 05:15:43;;;;;;;5.57;3.92;;;;;;;;;;4975805;28;20027;-74
2021/04/20 05:18:10;;;;;;;7.93;3.70;;;;;;;;;;4975483;28;20614;-72
2021/04/20 05:20:38;;;;;;;5.45;3.70;;;;;;;;;;4975469;28;20033;-73
2021/04/20 05:23:04;;;;;;;5.00;3.47;;;;;;;;;;4992973;28;20487;-72
2021/04/20 05:25:31;;;;;;;5.95;3.83;;;;;;;;;;4975411;28;20116;-71
2021/04/20 05:27:57;;;;;;;5.45;3.30;;;;;;;;;;4975374;28;20684;-72
2021/04/20 05:30:23;;;;;;;5.25;3.53;;;;;;;;;;4993095;28;20061;-72
2021/04/20 05:32:52;;;;;;;6.18;3.70;;;;;;;;;;4993060;28;20093;-72
2021/04/20 05:35:18;;;;;;;6.70;3.53;;;;;;;;;;4992832;28;20396;-73
2021/04/20 05:37:46;;;;;;;6.13;3.38;;;;;;;;;;4990810;28;20076;-72
2021/04/20 05:40:16;;;;;;;7.60;3.92;;;;;;;;;;4992684;28;20018;-75
2021/04/20 05:42:42;;;;;;;6.13;3.60;;;;;;;;;;4975248;28;20018;-75
2021/04/20 05:45:09;;;;;;;9.13;3.53;;;;;;;;;;4992714;28;20023;-75
2021/04/20 05:47:39;;;;;;;6.15;3.33;;;;;;;;;;4992401;28;20078;-73
2021/04/20 05:50:06;;;;;;;5.72;3.83;;;;;;;;;;4992199;28;20483;-72
2021/04/20 05:52:36;;;;;;;5.15;3.38;;;;;;;;;;4975024;28;20022;-72
2021/04/20 05:55:03;;;;;;;4.82;3.20;;;;;;;;;;4992584;28;20084;-75
2021/04/20 05:57:29;;;;;;;5.47;3.30;;;;;;;;;;4992384;28;20061;-71
2021/04/20 05:59:56;;;;;;;6.53;4.22;;;;;;;;;;4974597;28;20503;-72
2021/04/20 06:02:22;;;;;;;5.22;3.70;;;;;;;;;;4973172;28;20027;-72
2021/04/20 06:04:51;;;;;;;7.85;3.75;;;;;;;;;;4974972;28;20065;-75
2021/04/20 06:07:18;;;;;;;6.38;4.15;;;;;;;;;;4992390;28;20076;-72
2021/04/20 06:09:44;;;;;;;6.22;3.45;;;;;;;;;;4992355;28;20022;-72
2021/04/20 06:12:11;;;;;;;6.38;3.53;;;;;;;;;;4991910;28;20018;-76
2021/04/20 06:14:39;;;;;;;6.63;3.97;;;;;;;;;;4992062;28;20101;-71
2021/04/20 06:17:07;;;;;;;8.27;4.20;;;;;;;;;;4991022;28;20042;-71
2021/04/20 06:19:33;;;;;;;6.10;3.90;;;;;;;;;;4974653;28;20030;-72
2021/04/20 06:21:59;;;;;;;6.40;4.10;;;;;;;;;;4991952;28;20092;-72
2021/04/20 06:24:26;;;;;;;6.30;4.03;;;;;;;;;;4974622;28;20031;-72
2021/04/20 06:26:53;;;;;;;7.68;4.35;;;;;;;;;;4992105;28;20062;-72
2021/04/20 06:29:19;;;;;;;6.28;4.10;;;;;;;;;;4974233;28;20494;-71
2021/04/20 06:31:45;;;;;;;5.80;4.00;;;;;;;;;;4999045;28;20033;-72
2021/04/20 06:34:11;;;;;;;5.93;3.90;;;;;;;;;;5011701;28;20128;-74
2021/04/20 06:36:38;;;;;;;6.32;4.20;;;;;;;;;;5011677;28;20026;-72
2021/04/20 06:39:04;;;;;;;9.80;4.55;;;;;;;;;;4993897;28;20160;-72
2021/04/20 06:41:32;;;;;;;7.90;4.05;;;;;;;;;;5011543;28;20348;-71
2021/04/20 06:44:06;;;;;;;6.93;4.10;;;;;;;;;;5011429;28;20033;-72
2021/04/20 06:46:54;;;;;;;7.85;4.35;;;;;;;;;;5011333;28;20022;-72
2021/04/20 06:49:24;;;;;;;6.97;3.83;;;;;;;;;;5011373;28;20033;-72
2021/04/20 06:51:51;;;;;;;6.80;3.83;;;;;;;;;;5011377;28;20018;-72
2021/04/20 06:54:29;;;;;;;7.25;4.35;;;;;;;;;;5011218;28;20070;-71
2021/04/20 06:56:55;;;;;;;6.60;3.90;;;;;;;;;;4993436;28;20036;-73
2021/04/20 06:59:40;;;;;;;7.97;3.53;;;;;;;;;;5011237;28;20502;-75
2021/04/20 07:02:12;;;;;;;8.60;3.70;;;;;;;;;;5011157;28;20554;-72
2021/04/20 07:04:38;;;;;;;;;;;;;;;;;;4993976;28;20120;-75
2021/04/20 07:07:07;;;;;;;5.90;3.53;;;;;;;;;;4993422;28;20392;-71
2021/04/20 07:09:36;;;;;;;10.75;3.60;;;;;;;;;;4993698;28;20026;-71
2021/04/20 07:12:03;;;;;;;6.82;4.20;;;;;;;;;;5013497;28;20022;-72
2021/04/20 07:14:35;;;;;;;6.50;4.25;;;;;;;;;;5010246;28;20110;-73
2021/04/20 07:17:10;;;;;;;5.63;3.53;;;;;;;;;;4995309;28;20022;-71
2021/04/20 07:19:46;;;;;;;8.82;3.70;;;;;;;;;;4977540;28;20061;-72
2021/04/20 07:22:19;;;;;;;7.97;4.38;;;;;;;;;;4977264;28;20041;-72
2021/04/20 07:24:57;;;;;;;10.02;4.32;;;;;;;;;;4976164;28;20092;-71
2021/04/20 07:27:23;;;;;;;7.78;3.85;;;;;;;;;;4977387;28;20023;-71
2021/04/20 07:29:53;;;;;;;6.97;3.92;;;;;;;;;;4995175;28;20062;-72
2021/04/20 07:32:28;;;;;;;8.73;4.40;;;;;;;;;;4974621;28;20030;-70
2021/04/20 07:35:10;;;;;;;9.30;4.53;;;;;;;;;;4993180;28;20049;-71
2021/04/20 07:37:48;;;;;;;6.65;4.13;;;;;;;;;;4992329;28;20030;-71
2021/04/20 07:40:21;;;;;;;6.50;4.07;;;;;;;;;;4977063;28;20029;-73
2021/04/20 07:42:47;;;;;;;9.02;4.28;;;;;;;;;;4976834;28;20022;-73
2021/04/20 07:45:24;;;;;;;7.45;4.35;;;;;;;;;;4994664;28;20026;-72
2021/04/20 07:47:53;;;;;;;12.20;5.25;;;;;;;;;;4976812;28;20030;-74
2021/04/20 07:50:22;;;;;;;7.97;5.03;;;;;;;;;;4994242;28;20065;-74
2021/04/20 07:52:57;;;;;;;6.68;4.00;;;;;;;;;;4994555;28;20019;-71
2021/04/20 07:55:29;;;;;;;7.63;5.43;;;;;;;;;;4994873;28;20027;-78
2021/04/20 07:57:57;;;;;;;7.53;5.00;;;;;;;;;;4977076;28;20034;-71
2021/04/20 08:00:30;;;;;;;7.35;4.75;;;;;;;;;;4994922;28;20057;-71
2021/04/20 08:03:15;;;;;;;10.77;4.72;;;;;;;;;;4994437;28;20019;-74
2021/04/20 08:05:49;;;;;;;8.00;4.20;;;;;;;;;;4994350;28;20035;-74
2021/04/20 08:08:20;;;;;;;6.93;4.03;;;;;;;;;;4976449;28;20042;-74
2021/04/20 08:10:58;;;;;;;6.13;3.85;;;;;;;;;;4994464;28;20022;-72
2021/04/20 08:13:28;;;;;;;10.10;4.43;;;;;;;;;;4976724;28;20054;-74
2021/04/20 08:16:13;;;;;;;8.32;3.97;;;;;;;;;;4994013;28;20023;-72
2021/04/20 08:19:08;;;;;;;5.35;3.60;;;;;;;;;;4994087;28;20027;-75
2021/04/20 08:21:37;;;;;;;6.35;3.85;;;;;;;;;;4984937;28;20056;-74
2021/04/20 08:24:05;;;;;;;5.10;3.53;;;;;;;;;;4994023;28;20096;-76
2021/04/20 08:26:33;;;;;;;5.90;3.90;;;;;;;;;;4964166;28;20031;-75
2021/04/20 08:29:05;;;;;;;6.80;3.97;;;;;;;;;;4975160;28;20023;-75
2021/04/20 08:31:38;;;;;;;13.70;4.53;;;;;;;;;;4973264;28;20026;-72
2021/04/20 08:34:30;;;;;;;7.53;3.70;;;;;;;;;;4974694;28;20392;-70
2021/04/20 08:37:03;;;;;;;7.03;3.55;;;;;;;;;;4955346;28;20035;-72
2021/04/20 08:39:35;;;;;;;7.45;3.80;;;;;;;;;;4974642;28;20480;-77
2021/04/20 08:42:20;;;;;;;10.67;3.70;;;;;;;;;;4987145;28;20054;-76
2021/04/20 08:44:46;;;;;;;11.07;4.03;;;;;;;;;;4993369;28;20333;-72
2021/04/20 08:47:16;;;;;;;5.45;3.53;;;;;;;;;;4993715;28;20037;-68
2021/04/20 08:50:01;;;;;;;8.80;4.43;;;;;;;;;;4993773;28;20102;-72
2021/04/20 08:52:37;;;;;;;8.00;3.60;;;;;;;;;;4976251;28;20018;-70
2021/04/20 08:55:22;;;;;;;5.45;3.65;;;;;;;;;;4993609;28;20037;-69
2021/04/20 08:57:58;;;;;;;7.00;3.92;;;;;;;;;;4976077;28;20065;-69
2021/04/20 09:00:43;;;;;;;4.93;3.40;;;;;;;;;;4993870;28;20518;-81
2021/04/20 09:03:09;;;;;;;6.43;3.40;;;;;;;;;;4994084;28;20038;-69
2021/04/20 09:05:49;;;;;;;6.28;3.75;;;;;;;;;;4993680;28;20029;-67
2021/04/20 09:08:25;;;;;;;7.30;3.60;;;;;;;;;;4993330;28;20023;-73
2021/04/20 09:11:10;;;;;;;7.70;3.80;;;;;;;;;;4993563;28;20550;-72
2021/04/20 09:13:58;;;;;;;7.22;4.18;;;;;;;;;;4975888;28;20030;-68
2021/04/20 09:16:26;;;;;;;5.97;3.72;;;;;;;;;;4975295;28;20026;-73
2021/04/20 09:18:53;;;;;;;5.50;3.20;;;;;;;;;;4992644;28;20015;-72
2021/04/20 09:21:37;;;;;;;6.97;3.40;;;;;;;;;;4992530;28;20068;-69
2021/04/20 09:24:03;;;;;;;7.20;3.42;;;;;;;;;;4992181;28;20070;-69
2021/04/20 09:26:52;;;;;;;5.97;3.85;;;;;;;;;;4992969;28;20033;-69
2021/04/20 09:29:45;;;;;;;5.95;3.50;;;;;;;;;;4993027;28;20483;-71
2021/04/20 09:32:19;;;;;;;7.35;4.00;;;;;;;;;;4962625;28;20563;-79
2021/04/20 09:34:47;;;;;;;5.88;3.70;;;;;;;;;;4991879;28;20092;-70
2021/04/20 09:37:15;;;;;;;5.00;3.40;;;;;;;;;;4992478;28;20027;-70
2021/04/20 09:39:42;;;;;;;6.38;4.03;;;;;;;;;;4990352;28;20486;-72
2021/04/20 09:42:09;;;;;;;17.50;4.30;;;;;;;;;;4980024;28;20157;-72
2021/04/20 09:44:41;;;;;;;6.22;3.78;;;;;;;;;;4994784;28;20037;-77
2021/04/20 09:47:07;;;;;;;5.55;3.88;;;;;;;;;;5012429;28;20021;-74
2021/04/20 09:49:36;;;;;;;5.50;3.50;;;;;;;;;;5002989;28;20030;-77
2021/04/20 09:52:08;;;;;;;5.35;3.50;;;;;;;;;;4992768;28;20108;-75
2021/04/20 09:54:45;;;;;;;5.25;3.78;;;;;;;;;;4992816;28;20101;-68
2021/04/20 09:57:12;;;;;;;5.95;4.30;;;;;;;;;;4992571;28;20484;-68
2021/04/20 09:59:42;;;;;;;8.95;4.10;;;;;;;;;;4992531;28;20027;-69
2021/04/20 10:02:27;;;;;;;5.63;3.53;;;;;;;;;;4992176;28;20022;-70
2021/04/20 10:04:56;;;;;;;5.88;3.17;;;;;;;;;;4974696;28;20034;-70
2021/04/20 10:07:31;;;;;;;6.45;3.47;;;;;;;;;;4974691;28;20018;-68
2021/04/20 10:10:17;;;;;;;10.25;3.70;;;;;;;;;;4990991;28;20125;-68
2021/04/20 10:13:02;;;;;;;5.50;3.75;;;;;;;;;;4977988;28;20042;-67
2021/04/20 10:15:51;;;;;;;6.55;4.00;;;;;;;;;;5011827;28;20452;-70
2021/04/20 10:18:17;;;;;;;10.25;3.80;;;;;;;;;;5001831;28;20018;-70
2021/04/20 10:20:51;;;;;;;6.05;3.65;;;;;;;;;;4974882;28;20033;-71
2021/04/20 10:23:35;;;;;;;6.82;3.45;;;;;;;;;;4991789;28;20054;-69
2021/04/20 10:26:13;;;;;;;7.53;3.67;;;;;;;;;;4992144;28;20081;-71
2021/04/20 10:28:39;;;;;;;7.82;3.60;;;;;;;;;;4992104;28;20022;-75
2021/04/20 10:31:20;;;;;;;12.18;3.30;;;;;;;;;;4992272;28;20490;-70
2021/04/20 10:33:47;;;;;;;5.78;3.78;;;;;;;;;;4974579;28;20037;-71
2021/04/20 10:36:14;;;;;;;7.18;3.83;;;;;;;;;;4972803;28;20022;-69
2021/04/20 10:38:40;;;;;;;6.10;3.75;;;;;;;;;;4993411;28;20037;-72
2021/04/20 10:41:20;;;;;;;6.60;3.80;;;;;;;;;;4991150;28;20025;-80
2021/04/20 10:43:47;;;;;;;6.55;4.05;;;;;;;;;;4974381;28;20042;-72
2021/04/20 10:46:13;;;;;;;7.15;3.83;;;;;;;;;;4994738;28;20128;-75
2021/04/20 10:48:40;;;;;;;6.28;4.10;;;;;;;;;;4995553;28;20046;-75
2021/04/20 10:51:07;;;;;;;7.00;4.60;;;;;;;;;;4978207;28;20018;-74
2021/04/20 10:53:36;;;;;;;8.00;4.15;;;;;;;;;;4977909;28;20018;-75
2021/04/20 10:56:05;;;;;;;10.13;4.20;;;;;;;;;;4995427;28;20030;-75
2021/04/20 10:58:32;;;;;;;6.95;4.20;;;;;;;;;;4995055;28;20022;-75
2021/04/20 11:00:58;;;;;;;6.72;4.10;;;;;;;;;;4995174;28;20030;-74
2021/04/20 11:03:26;;;;;;;6.82;4.80;;;;;;;;;;4995621;28;20041;-74
2021/04/20 11:05:53;;;;;;;8.50;4.55;;;;;;;;;;4995230;28;20038;-74
2021/04/20 11:08:23;;;;;;;8.85;4.60;;;;;;;;;;4977855;28;20089;-75
2021/04/20 11:10:50;;;;;;;6.50;4.20;;;;;;;;;;4995275;28;20032;-75
2021/04/20 11:13:16;;;;;;;5.95;3.85;;;;;;;;;;4995212;28;20472;-75
2021/04/20 11:15:42;;;;;;;6.43;4.00;;;;;;;;;;4995050;28;20022;-75
2021/04/20 11:18:13;;;;;;;7.05;4.50;;;;;;;;;;4977626;28;20026;-75
2021/04/20 11:20:42;;;;;;;7.68;3.53;;;;;;;;;;4977526;28;20037;-75
2021/04/20 11:25:37;;;;;;;5.15;3.17;;;;;;;;;;4995042;28;20034;-75
2021/04/20 11:28:08;;;;;;;6.18;2.95;;;;;;;;;;4977300;28;20033;-76
2021/04/20 11:30:35;;;;;;;5.93;3.85;;;;;;;;;;4977010;28;20026;-76
2021/04/20 11:33:10;;;;;;;5.50;3.20;;;;;;;;;;4977357;28;20168;-76
2021/04/20 11:35:41;;;;;;;4.93;3.35;;;;;;;;;;4977179;28;20026;-75
2021/04/20 11:38:07;;;;;;;7.95;3.10;;;;;;;;;;4976993;28;20037;-76
2021/04/20 11:40:42;;;;;;;5.45;3.17;;;;;;;;;;4976958;28;20495;-74
2021/04/20 11:43:12;;;;;;;8.52;3.38;;;;;;;;;;4994573;28;20387;-76
2021/04/20 11:45:39;;;;;;;6.80;3.90;;;;;;;;;;4994537;28;20434;-77
2021/04/20 11:48:16;;;;;;;5.55;3.33;;;;;;;;;;4994414;28;20029;-75
2021/04/20 11:51:02;;;;;;;4.88;3.20;;;;;;;;;;4977201;28;20070;-76
2021/04/20 11:53:29;;;;;;;7.47;3.50;;;;;;;;;;4977032;28;20034;-76
2021/04/20 11:55:57;;;;;;;19.30;3.88;;;;;;;;;;4977112;28;20376;-77
2021/04/20 11:58:23;;;;;;;12.40;3.58;;;;;;;;;;4976394;28;20030;-76
2021/04/20 12:00:51;;;;;;;8.80;3.35;;;;;;;;;;4976808;28;20117;-76
2021/04/20 12:03:21;;;;;;;8.80;4.00;;;;;;;;;;4976787;28;20567;-76
2021/04/20 12:05:48;;;;;;;6.55;3.83;;;;;;;;;;4993872;28;20187;-76
2021/04/20 12:08:21;;;;;;;6.22;3.88;;;;;;;;;;4976480;28;20399;-76
2021/04/20 12:10:50;;;;;;;8.82;3.58;;;;;;;;;;4991394;28;20022;-76
2021/04/20 12:13:16;;;;;;;5.63;3.58;;;;;;;;;;4973355;28;20027;-75
2021/04/20 12:15:43;;;;;;;7.47;3.42;;;;;;;;;;4974236;28;20106;-76
2021/04/20 12:18:09;;;;;;;5.82;3.75;;;;;;;;;;4967514;28;20174;-76
2021/04/20 12:20:35;;;;;;;5.47;3.30;;;;;;;;;;4986979;28;20789;-75
2021/04/20 12:23:02;;;;;;;7.18;3.92;;;;;;;;;;4976501;28;20137;-75
2021/04/20 12:25:28;;;;;;;7.03;4.20;;;;;;;;;;4993906;28;20022;-70
2021/04/20 12:27:57;;;;;;;5.15;3.40;;;;;;;;;;4993728;28;20026;-72
2021/04/20 12:30:24;;;;;;;7.10;4.03;;;;;;;;;;4994452;28;20069;-71
2021/04/20 12:32:50;;;;;;;6.72;3.80;;;;;;;;;;4976779;28;20023;-72
2021/04/20 12:35:25;;;;;;;5.85;3.90;;;;;;;;;;4976639;28;20022;-72
2021/04/20 12:37:53;;;;;;;5.63;3.85;;;;;;;;;;4994116;28;20027;-71
2021/04/20 12:40:21;;;;;;;5.53;3.78;;;;;;;;;;4976509;28;20019;-72
2021/04/20 12:42:49;;;;;;;9.23;4.03;;;;;;;;;;4976445;28;20037;-72
2021/04/20 12:45:17;;;;;;;6.53;3.80;;;;;;;;;;4994146;28;20427;-73
2021/04/20 12:47:44;;;;;;;6.47;4.03;;;;;;;;;;4993871;28;20088;-70
2021/04/20 12:50:12;;;;;;;5.93;3.38;;;;;;;;;;4993968;28;20167;-72
2021/04/20 12:52:41;;;;;;;5.72;4.05;;;;;;;;;;4976217;28;20018;-71
2021/04/20 12:55:09;;;;;;;5.57;3.90;;;;;;;;;;4993987;28;20033;-70
2021/04/20 12:57:41;;;;;;;5.53;3.88;;;;;;;;;;4993576;28;20029;-71
2021/04/20 13:00:10;;;;;;;6.63;4.00;;;;;;;;;;4993811;28;20387;-71
2021/04/20 13:02:37;;;;;;;6.28;4.35;;;;;;;;;;4976022;28;20023;-71
2021/04/20 13:05:04;;;;;;;5.68;3.67;;;;;;;;;;4975901;28;20066;-75
2021/04/20 13:07:33;;;;;;;7.05;3.80;;;;;;;;;;4993210;28;20494;-74
2021/04/20 13:10:00;;;;;;;7.13;4.50;;;;;;;;;;4973240;28;20571;-68
2021/04/20 13:12:27;;;;;;;5.82;4.03;;;;;;;;;;4973759;28;20102;-74
2021/04/20 13:14:57;;;;;;;5.50;3.83;;;;;;;;;;4992671;28;20030;-73
2021/04/20 13:17:25;;;;;;;6.43;3.85;;;;;;;;;;4975595;28;20034;-74
2021/04/20 13:19:53;;;;;;;6.22;4.10;;;;;;;;;;4975443;28;20030;-71
2021/04/20 13:22:19;;;;;;;5.50;4.05;;;;;;;;;;4972118;28;20051;-72
2021/04/20 13:24:46;;;;;;;6.57;4.45;;;;;;;;;;4973168;28;20038;-73
2021/04/20 13:27:13;;;;;;;7.97;3.40;;;;;;;;;;4971678;28;20019;-75
2021/04/20 13:29:40;;;;;;;5.32;3.45;;;;;;;;;;4973050;28;20031;-72
2021/04/20 13:32:07;;;;;;;8.20;4.47;;;;;;;;;;4986756;28;20029;-74
2021/04/20 13:34:39;;;;;;;15.95;4.75;;;;;;;;;;4992178;28;20104;-73
2021/04/20 13:37:11;;;;;;;15.82;4.40;;;;;;;;;;4992477;28;20023;-72
2021/04/20 13:39:42;;;;;;;6.40;4.45;;;;;;;;;;4992407;28;20033;-72
2021/04/20 13:42:27;;;;;;;24.48;4.90;;;;;;;;;;5109110;27;20445;-71
2021/04/20 13:44:56;;;;;;;9.35;4.50;;;;;;;;;;5109074;28;20024;-72
2021/04/20 13:47:23;;;;;;;8.57;4.22;;;;;;;;;;5106775;28;20069;-71
2021/04/20 13:49:53;;;;;;;6.85;4.05;;;;;;;;;;5108939;28;20020;-73
2021/04/20 13:52:20;;;;;;;7.63;4.38;;;;;;;;;;5109561;28;20024;-72
2021/04/20 13:54:52;;;;;;;7.80;4.10;;;;;;;;;;5108277;28;20047;-71
2021/04/20 13:57:23;;;;;;;7.70;3.83;;;;;;;;;;5109495;28;20069;-71
2021/04/20 13:59:50;;;;;;;7.80;3.40;;;;;;;;;;5109248;28;20542;-72
2021/04/20 14:02:18;;;;;;;6.20;3.20;;;;;;;;;;5109084;28;20031;-71
2021/04/20 14:04:48;;;;;;;7.40;3.25;;;;;;;;;;5098337;28;20020;-69
2021/04/20 14:07:32;;;;;;;7.25;3.70;;;;;;;;;;5104734;28;20414;-71
2021/04/20 14:09:59;;;;;;;8.40;3.90;;;;;;;;;;5087487;28;20028;-69
2021/04/20 14:12:28;;;;;;;10.30;4.03;;;;;;;;;;5088496;28;20030;-72
2021/04/20 14:14:57;;;;;;;13.73;3.50;;;;;;;;;;5087188;28;20020;-73
2021/04/20 14:17:30;;;;;;;5.97;3.78;;;;;;;;;;5086543;28;20077;-70
2021/04/20 14:19:58;;;;;;;11.77;3.60;;;;;;;;;;5087606;28;20052;-70
2021/04/20 14:22:28;;;;;;;5.47;3.65;;;;;;;;;;5103951;28;20073;-71
2021/04/20 14:24:58;;;;;;;7.15;4.03;;;;;;;;;;5108286;28;20016;-70
2021/04/20 14:27:31;;;;;;;6.65;4.10;;;;;;;;;;5106692;28;20495;-72
2021/04/20 14:30:02;;;;;;;8.77;3.90;;;;;;;;;;5106495;28;20545;-70
2021/04/20 14:32:32;;;;;;;6.22;3.45;;;;;;;;;;5108216;28;20066;-71
2021/04/20 14:35:03;;;;;;;6.10;4.10;;;;;;;;;;5107879;28;20047;-71
2021/04/20 14:37:30;;;;;;;7.90;3.90;;;;;;;;;;5107621;28;20031;-70
2021/04/20 14:39:57;;;;;;;7.28;4.03;;;;;;;;;;5087200;28;20021;-70
2021/04/20 14:42:23;;;;;;;10.88;4.05;;;;;;;;;;5088192;28;20103;-69
2021/04/20 14:44:50;;;;;;;6.97;4.35;;;;;;;;;;5087996;28;20020;-67
2021/04/20 14:47:18;;;;;;;9.95;4.55;;;;;;;;;;5088226;28;20036;-68
2021/04/20 14:49:48;;;;;;;7.72;4.95;;;;;;;;;;5108186;28;20035;-68
2021/04/20 14:52:15;;;;;;;5.45;3.45;;;;;;;;;;5102190;28;20077;-72
2021/04/20 14:54:44;;;;;;;7.03;4.47;;;;;;;;;;5093673;28;20060;-73
2021/04/20 14:57:10;;;;;;;13.40;5.75;;;;;;;;;;5093546;28;20020;-69
2021/04/20 14:59:37;;;;;;;10.48;4.57;;;;;;;;;;5090557;28;20443;-72